Time;durP1;ratioP1;P1;durP2;ratioP2;P2;SDS_P1;SDS_P2;PMS_P1;PMS_P2;Temp;Humidity;BMP_temperature;BMP_pressure;BME280_temperature;BME280_humidity;BME280_pressure;Samples;Min_cycle;Max_cycle;Signal;HPM_P1;HPM_P2
2024/04/10 00:00:47;;;;;;;6.33;5.37;;;11.00;22.60;;;;;;5453582;26;20514;-78
2024/04/10 00:03:16;;;;;;;5.20;5.00;;;11.00;22.90;;;;;;5453588;26;20224;-78
2024/04/10 00:06:03;;;;;;;6.23;5.93;;;11.10;22.40;;;;;;5421598;26;20461;-77
2024/04/10 00:08:30;;;;;;;6.30;6.00;;;11.00;22.50;;;;;;5454663;26;20992;-77
2024/04/10 00:10:55;;;;;;;5.90;5.70;;;11.00;22.90;;;;;;5421305;26;20944;-77
2024/04/10 00:13:21;;;;;;;6.50;6.20;;;11.00;22.70;;;;;;5452857;26;20465;-78
2024/04/10 00:16:00;;;;;;;6.43;6.03;;;11.00;22.80;;;;;;5422190;26;20280;-77
2024/04/10 00:18:27;;;;;;;6.00;5.70;;;11.10;22.60;;;;;;5417891;26;20539;-77
2024/04/10 00:20:53;;;;;;;6.43;6.03;;;11.20;22.50;;;;;;5417992;26;20538;-78
2024/04/10 00:23:18;;;;;;;6.00;5.60;;;11.30;22.40;;;;;;5419108;26;21053;-78
2024/04/10 00:26:00;;;;;;;6.80;6.40;;;11.30;22.20;;;;;;5419169;26;20467;-78
2024/04/10 00:28:31;;;;;;;6.40;6.10;;;11.30;22.30;;;;;;5387936;26;20401;-78
2024/04/10 00:30:57;;;;;;;6.07;5.83;;;11.40;22.10;;;;;;5389011;26;20467;-78
2024/04/10 00:33:22;;;;;;;6.57;6.27;;;11.30;22.00;;;;;;5429575;26;20458;-78
2024/04/10 00:35:59;;;;;;;6.13;5.83;;;11.40;21.90;;;;;;5419528;26;20585;-78
2024/04/10 00:38:30;;;;;;;6.27;5.87;;;11.40;21.60;;;;;;5444362;26;20272;-78
2024/04/10 00:40:59;;;;;;;5.30;5.10;;;11.40;21.80;;;;;;5454641;26;20465;-78
2024/04/10 00:43:25;;;;;;;6.07;5.77;;;11.20;22.00;;;;;;5429236;26;20455;-78
2024/04/10 00:46:13;;;;;;;6.30;5.80;;;11.10;22.30;;;;;;5418945;26;20519;-78
2024/04/10 00:48:39;;;;;;;5.70;5.50;;;11.10;22.40;;;;;;5387958;26;20467;-78
2024/04/10 00:51:07;;;;;;;5.67;5.40;;;11.10;22.20;;;;;;5418337;26;20576;-78
2024/04/10 00:53:34;;;;;;;5.40;5.10;;;11.10;22.20;;;;;;5389824;26;20503;-76
2024/04/10 00:56:03;;;;;;;5.83;5.43;;;11.10;22.40;;;;;;5420178;26;20459;-78
2024/04/10 00:58:30;;;;;;;6.07;5.53;;;11.10;22.40;;;;;;5418758;26;20527;-78
2024/04/10 01:00:55;;;;;;;5.33;5.00;;;11.20;22.50;;;;;;5386940;26;20877;-78
2024/04/10 01:03:22;;;;;;;6.23;5.97;;;11.30;22.00;;;;;;5418515;26;20459;-78
2024/04/10 01:06:07;;;;;;;6.13;5.80;;;11.40;21.60;;;;;;5387984;26;20727;-78
2024/04/10 01:08:35;;;;;;;5.50;5.20;;;11.30;21.90;;;;;;5421717;26;20936;-78
2024/04/10 01:11:03;;;;;;;5.97;5.67;;;11.30;21.90;;;;;;5421950;26;20519;-78
2024/04/10 01:13:29;;;;;;;5.70;5.40;;;11.20;22.00;;;;;;5422133;26;20566;-79
2024/04/10 01:15:55;;;;;;;5.90;5.50;;;11.30;22.10;;;;;;5421808;26;20573;-78
2024/04/10 01:18:21;;;;;;;5.70;5.50;;;11.30;21.90;;;;;;5436506;26;20805;-78
2024/04/10 01:20:48;;;;;;;5.97;5.57;;;11.20;22.20;;;;;;5421663;26;20313;-78
2024/04/10 01:23:17;;;;;;;5.30;5.00;;;11.40;21.80;;;;;;5421971;26;20450;-78
2024/04/10 01:25:43;;;;;;;5.40;5.10;;;11.40;21.50;;;;;;5419881;26;20552;-77
2024/04/10 01:28:09;;;;;;;5.30;5.00;;;11.40;21.80;;;;;;5418823;26;20459;-77
2024/04/10 01:30:35;;;;;;;6.10;5.63;;;11.40;21.40;;;;;;5419408;26;20225;-77
2024/04/10 01:33:00;;;;;;;5.47;5.13;;;11.40;21.40;;;;;;5418871;26;20571;-77
2024/04/10 01:35:26;;;;;;;6.03;5.73;;;11.30;21.80;;;;;;5419334;26;20508;-78
2024/04/10 01:37:52;;;;;;;5.50;5.30;;;11.30;22.10;;;;;;5418702;26;20284;-78
2024/04/10 01:40:18;;;;;;;5.40;5.20;;;11.20;22.20;;;;;;5387489;26;20279;-78
2024/04/10 01:42:44;;;;;;;6.00;5.70;;;11.10;22.20;;;;;;5419051;26;20241;-78
2024/04/10 01:45:10;;;;;;;6.40;6.00;;;10.90;22.90;;;;;;5418467;26;20463;-78
2024/04/10 01:47:35;;;;;;;6.27;5.80;;;10.80;23.20;;;;;;5418306;26;20463;-77
2024/04/10 01:50:01;;;;;;;5.73;5.40;;;10.70;23.60;;;;;;5418506;26;20748;-77
2024/04/10 01:52:26;;;;;;;5.33;5.13;;;10.70;23.60;;;;;;5418585;26;20272;-77
2024/04/10 01:54:52;;;;;;;5.37;5.17;;;10.70;23.60;;;;;;5420544;26;20225;-78
2024/04/10 01:57:18;;;;;;;5.70;5.40;;;10.70;23.70;;;;;;5420630;26;20574;-78
2024/04/10 01:59:44;;;;;;;6.20;5.80;;;10.70;23.60;;;;;;5420379;26;20515;-78
2024/04/10 02:02:09;;;;;;;6.43;6.03;;;10.70;23.70;;;;;;5387229;26;20313;-78
2024/04/10 02:04:35;;;;;;;6.20;5.90;;;10.70;23.60;;;;;;5387840;26;20766;-77
2024/04/10 02:07:01;;;;;;;5.90;5.50;;;10.60;23.60;;;;;;5418492;26;20323;-78
2024/04/10 02:09:28;;;;;;;6.03;5.57;;;10.60;23.70;;;;;;5386809;26;20279;-77
2024/04/10 02:11:53;;;;;;;5.60;5.30;;;10.50;23.70;;;;;;5386268;26;20470;-78
2024/04/10 02:14:19;;;;;;;6.13;5.83;;;10.40;24.00;;;;;;5418256;26;20812;-77
2024/04/10 02:16:46;;;;;;;5.97;5.67;;;10.50;24.00;;;;;;5418236;26;20229;-78
2024/04/10 02:19:12;;;;;;;6.20;5.90;;;10.50;23.70;;;;;;5416758;26;20246;-78
2024/04/10 02:21:38;;;;;;;5.87;5.47;;;10.60;23.60;;;;;;5418353;26;20994;-77
2024/04/10 02:24:06;;;;;;;6.10;5.80;;;10.60;23.60;;;;;;5418022;26;21099;-78
2024/04/10 02:26:32;;;;;;;6.60;6.20;;;10.50;23.80;;;;;;5418125;26;20510;-77
2024/04/10 02:28:57;;;;;;;6.07;5.67;;;10.40;24.00;;;;;;5417768;26;20467;-78
2024/04/10 02:31:23;;;;;;;6.33;5.93;;;10.40;24.40;;;;;;5419146;26;20225;-79
2024/04/10 02:33:48;;;;;;;6.77;6.27;;;10.40;24.30;;;;;;5420220;26;20354;-79
2024/04/10 02:36:13;;;;;;;6.30;6.00;;;10.40;24.10;;;;;;5419904;26;20279;-79
2024/04/10 02:38:39;;;;;;;6.20;5.90;;;10.40;24.10;;;;;;5419556;26;20279;-78
2024/04/10 02:41:05;;;;;;;31.63;23.10;;;10.30;24.60;;;;;;5420350;26;20233;-78
2024/04/10 02:43:31;;;;;;;7.87;7.17;;;10.20;24.60;;;;;;5388241;26;20519;-78
2024/04/10 02:45:57;;;;;;;7.27;6.87;;;10.20;24.80;;;;;;5420110;26;20263;-78
2024/04/10 02:48:23;;;;;;;6.03;5.83;;;10.20;24.80;;;;;;5420041;26;20233;-78
2024/04/10 02:50:49;;;;;;;6.63;6.23;;;10.20;24.60;;;;;;5420373;26;20544;-78
2024/04/10 02:53:15;;;;;;;7.10;6.57;;;10.20;24.60;;;;;;5420869;26;20495;-78
2024/04/10 02:55:44;;;;;;;6.10;5.80;;;10.20;24.50;;;;;;5388873;26;20499;-78
2024/04/10 02:58:11;;;;;;;7.50;6.83;;;10.30;24.30;;;;;;5424664;26;20287;-78
2024/04/10 03:00:51;;;;;;;6.30;5.90;;;10.20;24.20;;;;;;5446403;26;20455;-79
2024/04/10 03:03:18;;;;;;;6.43;6.03;;;10.20;24.30;;;;;;5419674;26;20879;-78
2024/04/10 03:05:46;;;;;;;6.37;5.83;;;10.20;24.40;;;;;;5418323;26;20471;-78
2024/04/10 03:08:12;;;;;;;6.87;6.27;;;10.30;24.00;;;;;;5417510;26;20455;-78
2024/04/10 03:10:38;;;;;;;6.33;6.03;;;10.20;24.00;;;;;;5417508;26;20455;-78
2024/04/10 03:13:04;;;;;;;7.30;6.80;;;10.20;24.30;;;;;;5417686;26;20463;-77
2024/04/10 03:15:31;;;;;;;6.47;6.10;;;10.20;23.80;;;;;;5417886;26;20503;-77
2024/04/10 03:17:56;;;;;;;6.40;6.00;;;10.10;23.90;;;;;;5418903;26;20534;-77
2024/04/10 03:20:23;;;;;;;5.93;5.63;;;10.10;24.10;;;;;;5453805;26;20458;-77
2024/04/10 03:22:49;;;;;;;6.80;6.50;;;10.20;24.20;;;;;;5448160;26;20226;-77
2024/04/10 03:25:15;;;;;;;6.53;5.93;;;10.10;23.60;;;;;;5459140;26;20462;-76
2024/04/10 03:27:41;;;;;;;6.33;6.13;;;10.20;23.50;;;;;;5461352;26;20441;-77
2024/04/10 03:30:07;;;;;;;6.70;6.27;;;10.10;23.60;;;;;;5457497;26;20469;-77
2024/04/10 03:32:33;;;;;;;6.67;6.27;;;10.20;23.50;;;;;;5412370;26;20526;-77
2024/04/10 03:34:59;;;;;;;6.53;6.13;;;10.20;23.30;;;;;;5410593;26;20504;-77
2024/04/10 03:37:25;;;;;;;6.10;5.80;;;10.20;23.30;;;;;;5440592;26;20443;-77
2024/04/10 03:39:51;;;;;;;7.13;6.70;;;10.20;23.30;;;;;;5455203;26;20520;-77
2024/04/10 03:42:17;;;;;;;7.37;6.70;;;10.20;23.30;;;;;;5455519;26;20446;-77
2024/04/10 03:44:43;;;;;;;6.43;6.03;;;10.20;23.30;;;;;;5435924;26;20510;-78
2024/04/10 03:47:08;;;;;;;6.63;6.23;;;10.20;23.30;;;;;;5444882;26;20453;-77
2024/04/10 03:49:34;;;;;;;6.07;5.73;;;10.10;23.20;;;;;;5419863;26;20247;-78
2024/04/10 03:51:59;;;;;;;6.50;6.07;;;10.20;23.30;;;;;;5442550;26;20228;-78
2024/04/10 03:54:25;;;;;;;5.70;5.37;;;10.20;23.30;;;;;;5444769;26;20583;-78
2024/04/10 03:56:51;;;;;;;6.33;5.70;;;10.20;23.30;;;;;;5436449;26;20336;-78
2024/04/10 03:59:17;;;;;;;6.30;6.00;;;10.20;23.30;;;;;;5442114;26;20232;-78
2024/04/10 04:01:42;;;;;;;6.93;6.20;;;10.10;23.30;;;;;;5443834;26;20453;-78
2024/04/10 04:04:08;;;;;;;7.50;6.90;;;10.00;23.70;;;;;;5420320;26;20228;-78
2024/04/10 04:06:34;;;;;;;7.43;6.80;;;9.90;23.80;;;;;;5419543;26;20236;-78
2024/04/10 04:08:59;;;;;;;6.70;6.27;;;10.00;23.20;;;;;;5449724;26;20240;-78
2024/04/10 04:11:25;;;;;;;7.20;6.80;;;10.00;23.20;;;;;;5445273;26;20273;-78
2024/04/10 04:13:51;;;;;;;8.10;7.63;;;10.00;23.20;;;;;;5441713;26;20266;-78
2024/04/10 04:16:17;;;;;;;7.30;6.70;;;10.10;22.60;;;;;;5442326;26;20228;-78
2024/04/10 04:18:42;;;;;;;7.43;7.03;;;10.10;22.70;;;;;;5441078;26;21046;-78
2024/04/10 04:21:08;;;;;;;6.90;6.60;;;10.10;22.40;;;;;;5440611;26;20228;-79
2024/04/10 04:23:35;;;;;;;6.40;6.10;;;10.10;22.50;;;;;;5440115;26;20221;-78
2024/04/10 04:26:00;;;;;;;7.53;6.93;;;10.00;22.40;;;;;;5442511;26;20228;-77
2024/04/10 04:28:26;;;;;;;6.80;6.43;;;10.00;22.70;;;;;;5440531;26;20506;-78
2024/04/10 04:30:51;;;;;;;7.47;7.07;;;10.00;22.70;;;;;;5448265;26;20793;-78
2024/04/10 04:33:18;;;;;;;7.00;6.60;;;9.90;23.60;;;;;;5452612;26;20228;-78
2024/04/10 04:35:44;;;;;;;7.07;6.50;;;9.90;23.80;;;;;;5421750;26;20276;-78
2024/04/10 04:38:10;;;;;;;7.80;7.17;;;9.90;23.90;;;;;;5452020;26;20521;-77
2024/04/10 04:40:36;;;;;;;6.80;6.17;;;9.90;23.80;;;;;;5451255;26;20224;-78
2024/04/10 04:43:09;;;;;;;7.20;6.60;;;9.90;23.90;;;;;;5453277;26;20457;-79
2024/04/10 04:45:36;;;;;;;7.00;6.50;;;9.80;23.80;;;;;;5453770;26;20228;-78
2024/04/10 04:48:03;;;;;;;6.30;5.90;;;10.00;22.80;;;;;;5452872;26;20508;-78
2024/04/10 04:50:28;;;;;;;6.57;6.17;;;10.20;22.10;;;;;;5452945;26;21012;-78
2024/04/10 04:52:54;;;;;;;6.23;5.73;;;10.50;21.30;;;;;;5452769;26;20537;-78
2024/04/10 04:55:19;;;;;;;6.10;5.70;;;10.70;20.70;;;;;;5453433;26;20224;-78
2024/04/10 04:57:45;;;;;;;7.10;6.60;;;10.60;20.70;;;;;;5452237;26;20317;-78
2024/04/10 05:00:11;;;;;;;6.53;6.03;;;10.50;20.90;;;;;;5452768;26;20766;-77
2024/04/10 05:02:43;;;;;;;7.33;6.70;;;10.60;20.80;;;;;;5441466;26;20229;-77
2024/04/10 05:05:13;;;;;;;7.20;6.60;;;10.30;21.20;;;;;;5417020;26;20585;-77
2024/04/10 05:07:40;;;;;;;7.53;6.97;;;10.20;21.60;;;;;;5416422;26;20459;-77
2024/04/10 05:10:05;;;;;;;6.83;6.43;;;10.10;22.20;;;;;;5418828;26;20534;-78
2024/04/10 05:12:32;;;;;;;7.20;6.80;;;10.00;22.20;;;;;;5419346;26;20989;-78
2024/04/10 05:14:57;;;;;;;7.33;6.83;;;9.90;23.20;;;;;;5422439;26;20228;-77
2024/04/10 05:17:23;;;;;;;7.43;6.73;;;9.80;23.60;;;;;;5418957;26;20507;-79
2024/04/10 05:19:48;;;;;;;7.93;7.37;;;9.80;23.80;;;;;;5418502;26;20288;-78
2024/04/10 05:22:14;;;;;;;7.83;7.10;;;9.70;23.70;;;;;;5410078;26;20263;-77
2024/04/10 05:24:41;;;;;;;8.30;7.60;;;9.70;23.70;;;;;;5383043;26;20284;-77
2024/04/10 05:27:20;;;;;;;7.97;7.27;;;9.80;23.80;;;;;;5433011;26;20272;-76
2024/04/10 05:29:45;;;;;;;6.90;5.90;;;9.80;23.70;;;;;;5424670;26;20467;-78
2024/04/10 05:32:11;;;;;;;7.13;6.53;;;9.90;23.40;;;;;;5415215;26;20562;-76
2024/04/10 05:34:36;;;;;;;7.60;6.80;;;10.00;22.30;;;;;;5413981;26;20718;-78
2024/04/10 05:37:02;;;;;;;7.00;6.60;;;9.90;23.20;;;;;;5412700;26;20302;-78
2024/04/10 05:39:28;;;;;;;7.67;7.00;;;10.00;22.50;;;;;;5451439;21;20265;-78
2024/04/10 05:41:55;;;;;;;7.40;6.90;;;9.90;23.20;;;;;;5414360;26;20299;-78
2024/04/10 05:44:20;;;;;;;7.73;7.10;;;10.00;22.20;;;;;;5416387;26;20532;-79
2024/04/10 05:46:46;;;;;;;7.70;7.20;;;10.20;22.20;;;;;;5411162;26;20465;-78
2024/04/10 05:49:11;;;;;;;7.73;7.13;;;10.40;21.30;;;;;;5398847;26;20283;-77
2024/04/10 05:51:37;;;;;;;6.80;6.10;;;10.30;21.00;;;;;;5374391;26;20242;-79
2024/04/10 05:54:03;;;;;;;7.93;7.20;;;10.30;21.30;;;;;;5432237;26;20577;-78
2024/04/10 05:56:29;;;;;;;7.53;6.60;;;10.20;21.00;;;;;;5384631;26;20675;-78
2024/04/10 05:58:55;;;;;;;8.03;7.60;;;10.30;21.10;;;;;;5398478;26;20473;-78
2024/04/10 06:01:20;;;;;;;7.63;7.13;;;10.40;20.60;;;;;;5423640;26;20847;-78
2024/04/10 06:03:46;;;;;;;8.70;8.00;;;10.60;20.10;;;;;;5437336;26;20229;-78
2024/04/10 06:06:13;;;;;;;8.30;7.50;;;10.60;20.40;;;;;;5413075;26;20458;-78
2024/04/10 06:08:39;;;;;;;8.13;7.50;;;10.60;20.30;;;;;;5420191;26;20284;-79
2024/04/10 06:11:05;;;;;;;7.30;6.80;;;10.60;20.30;;;;;;5424705;26;20462;-78
2024/04/10 06:13:32;;;;;;;7.67;7.13;;;10.40;20.70;;;;;;5436391;26;20534;-78
2024/04/10 06:16:02;;;;;;;8.07;7.57;;;10.60;20.60;;;;;;5423539;26;20552;-79
2024/04/10 06:18:28;;;;;;;7.50;7.00;;;10.60;20.30;;;;;;5437445;26;20513;-78
2024/04/10 06:21:01;;;;;;;7.73;7.17;;;10.70;20.40;;;;;;5451115;26;20461;-80
2024/04/10 06:23:29;;;;;;;8.60;7.83;;;11.00;19.90;;;;;;5413804;26;20711;-79
2024/04/10 06:25:55;;;;;;;8.47;7.87;;;10.90;19.60;;;;;;5444765;26;20462;-79
2024/04/10 06:28:21;;;;;;;7.67;7.17;;;10.80;19.90;;;;;;5421243;26;20463;-79
2024/04/10 06:30:47;;;;;;;8.70;7.90;;;10.70;20.20;;;;;;5432961;26;20525;-79
2024/04/10 06:33:14;;;;;;;8.80;8.07;;;10.60;20.80;;;;;;5391981;26;20241;-78
2024/04/10 06:35:39;;;;;;;8.40;7.90;;;10.30;21.40;;;;;;5444104;26;20228;-79
2024/04/10 06:38:05;;;;;;;8.60;7.80;;;10.20;22.10;;;;;;5440623;26;20459;-77
2024/04/10 06:40:30;;;;;;;9.80;8.97;;;10.10;22.20;;;;;;5420663;26;20891;-77
2024/04/10 06:42:56;;;;;;;8.90;8.20;;;10.20;22.20;;;;;;5389517;26;20234;-77
2024/04/10 06:45:22;;;;;;;10.73;8.67;;;10.10;22.00;;;;;;5417655;26;20679;-80
2024/04/10 06:47:48;;;;;;;8.50;7.70;;;10.20;22.20;;;;;;5426027;26;20236;-78
2024/04/10 06:50:14;;;;;;;9.20;8.30;;;10.20;21.80;;;;;;5437594;26;20229;-78
2024/04/10 06:52:39;;;;;;;8.50;7.73;;;10.10;22.40;;;;;;5420974;26;20513;-78
2024/04/10 06:55:06;;;;;;;9.10;8.20;;;10.20;22.10;;;;;;5404761;26;21003;-78
2024/04/10 06:57:32;;;;;;;9.47;8.57;;;10.10;21.70;;;;;;5416751;26;20233;-80
2024/04/10 07:00:04;;;;;;;8.40;7.20;;;10.30;22.00;;;;;;5420978;26;21102;-79
2024/04/10 07:02:30;;;;;;;7.83;7.33;;;10.40;21.40;;;;;;5399110;26;20519;-77
2024/04/10 07:04:55;;;;;;;12.00;7.20;;;10.30;21.40;;;;;;5398790;26;20461;-77
2024/04/10 07:07:21;;;;;;;8.53;7.63;;;10.40;21.60;;;;;;5398328;26;20560;-77
2024/04/10 07:09:48;;;;;;;8.87;8.07;;;10.50;21.80;;;;;;5405091;26;20567;-78
2024/04/10 07:12:14;;;;;;;8.37;7.53;;;10.60;20.80;;;;;;5415708;26;20273;-78
2024/04/10 07:14:40;;;;;;;7.17;6.60;;;10.70;20.70;;;;;;5419509;26;20513;-78
2024/04/10 07:17:06;;;;;;;9.90;7.80;;;10.90;20.00;;;;;;5421701;26;20525;-79
2024/04/10 07:19:34;;;;;;;10.57;7.70;;;11.10;19.50;;;;;;5396424;26;20280;-77
2024/04/10 07:22:03;;;;;;;10.83;8.00;;;11.30;19.20;;;;;;5403212;26;20232;-79
2024/04/10 07:24:28;;;;;;;11.43;7.37;;;11.50;18.60;;;;;;5430675;26;20524;-79
2024/04/10 07:26:54;;;;;;;8.70;8.00;;;11.60;18.40;;;;;;5399845;26;20523;-78
2024/04/10 07:29:19;;;;;;;8.63;7.90;;;11.70;18.20;;;;;;5387701;26;20278;-77
2024/04/10 07:31:45;;;;;;;8.20;7.40;;;11.60;17.90;;;;;;5427664;26;20266;-78
2024/04/10 07:34:14;;;;;;;8.30;7.70;;;11.60;18.80;;;;;;5375967;26;20234;-78
2024/04/10 07:36:41;;;;;;;11.40;7.77;;;11.70;18.20;;;;;;5390694;26;20591;-78
2024/04/10 07:39:08;;;;;;;8.37;7.33;;;11.80;17.90;;;;;;5389973;26;20475;-77
2024/04/10 07:41:33;;;;;;;9.83;7.37;;;11.90;17.30;;;;;;5395151;26;21004;-79
2024/04/10 07:43:59;;;;;;;9.53;7.20;;;11.90;17.00;;;;;;5433077;26;20519;-78
2024/04/10 07:46:25;;;;;;;7.53;6.80;;;11.90;17.10;;;;;;5376648;26;20463;-79
2024/04/10 07:48:55;;;;;;;13.53;7.83;;;11.80;17.20;;;;;;5430011;26;20232;-78
2024/04/10 07:51:22;;;;;;;7.93;7.17;;;11.80;17.50;;;;;;5429358;26;20228;-78
2024/04/10 07:53:48;;;;;;;8.13;7.40;;;11.80;17.30;;;;;;5410451;26;21097;-78
2024/04/10 07:56:14;;;;;;;7.70;6.93;;;11.80;17.10;;;;;;5430250;26;20516;-79
2024/04/10 07:58:41;;;;;;;9.07;7.50;;;11.70;17.70;;;;;;5442442;26;20533;-80
2024/04/10 08:01:07;;;;;;;8.03;7.43;;;11.70;17.20;;;;;;5438444;26;20467;-79
2024/04/10 08:03:34;;;;;;;8.30;7.60;;;11.70;17.30;;;;;;5453807;26;20461;-79
2024/04/10 08:06:04;;;;;;;8.07;7.20;;;11.70;17.10;;;;;;5429128;26;20577;-78
2024/04/10 08:08:30;;;;;;;8.67;7.27;;;11.70;17.70;;;;;;5406604;26;20469;-78
2024/04/10 08:11:02;;;;;;;7.93;7.13;;;11.80;17.60;;;;;;5424588;26;20456;-79
2024/04/10 08:13:29;;;;;;;8.97;8.03;;;12.00;16.80;;;;;;5396641;26;20470;-80
2024/04/10 08:15:59;;;;;;;8.73;7.13;;;12.00;16.30;;;;;;5434088;26;20567;-79
2024/04/10 08:18:28;;;;;;;9.03;6.90;;;12.10;16.30;;;;;;5430477;26;20538;-79
2024/04/10 08:21:11;;;;;;;10.77;7.50;;;12.10;16.50;;;;;;5433311;26;20451;-79
2024/04/10 08:23:38;;;;;;;8.97;8.17;;;12.20;16.40;;;;;;5395730;26;20824;-78
2024/04/10 08:26:17;;;;;;;7.57;7.07;;;12.20;16.40;;;;;;5392273;26;20466;-79
2024/04/10 08:28:50;;;;;;;8.60;7.30;;;11.80;17.10;;;;;;5430717;26;20461;-79
2024/04/10 08:31:18;;;;;;;11.77;8.23;;;11.50;17.70;;;;;;5386460;26;20537;-77
2024/04/10 08:33:44;;;;;;;10.87;8.10;;;11.50;18.10;;;;;;5414229;26;20570;-80
2024/04/10 08:37:37;;;;;;;16.40;7.87;;;11.40;17.50;;;;;;5476081;26;20658;-79
2024/04/10 08:40:03;;;;;;;9.20;8.40;;;11.70;17.50;;;;;;5408833;26;20475;-81
2024/04/10 08:42:31;;;;;;;11.90;8.27;;;11.80;17.60;;;;;;5403449;26;20241;-79
2024/04/10 08:44:58;;;;;;;8.20;7.60;;;11.90;17.70;;;;;;5403951;26;20468;-80
2024/04/10 08:47:26;;;;;;;9.60;7.93;;;12.00;17.20;;;;;;5403762;26;20467;-80
2024/04/10 08:49:51;;;;;;;8.23;7.37;;;12.10;16.30;;;;;;5399172;26;20467;-79
2024/04/10 08:52:19;;;;;;;8.53;7.70;;;12.20;15.90;;;;;;5405098;26;20464;-79
2024/04/10 08:54:46;;;;;;;8.60;7.90;;;12.20;15.30;;;;;;5401902;26;20229;-81
2024/04/10 08:57:11;;;;;;;9.57;8.67;;;12.20;15.10;;;;;;5399493;26;20468;-78
2024/04/10 08:59:37;;;;;;;9.10;8.17;;;12.30;15.40;;;;;;5398285;26;20539;-79
2024/04/10 09:02:03;;;;;;;8.50;7.80;;;12.40;16.30;;;;;;5402053;26;20356;-81
2024/04/10 09:04:28;;;;;;;9.33;7.73;;;12.40;15.40;;;;;;5399091;26;20234;-77
2024/04/10 09:07:01;;;;;;;8.07;7.27;;;12.50;14.10;;;;;;5398385;26;20241;-79
2024/04/10 09:09:26;;;;;;;9.43;8.47;;;12.50;13.50;;;;;;5399479;26;20230;-79
2024/04/10 09:11:52;;;;;;;8.77;7.83;;;12.60;13.30;;;;;;5401211;26;20572;-79
2024/04/10 09:14:18;;;;;;;8.97;8.13;;;12.60;13.90;;;;;;5395803;26;20579;-79
2024/04/10 09:16:44;;;;;;;10.57;7.97;;;12.70;14.20;;;;;;5403381;26;20230;-79
2024/04/10 09:19:17;;;;;;;10.20;8.50;;;12.80;14.40;;;;;;5402254;26;20316;-79
2024/04/10 09:21:56;;;;;;;9.10;7.70;;;12.80;14.20;;;;;;5391089;26;20513;-78
2024/04/10 09:24:26;;;;;;;9.57;8.23;;;12.80;13.40;;;;;;5404837;26;20573;-79
2024/04/10 09:26:54;;;;;;;9.20;7.83;;;12.80;12.50;;;;;;5399683;26;20522;-80
2024/04/10 09:29:24;;;;;;;8.27;7.47;;;12.90;12.40;;;;;;5400052;26;20511;-80
2024/04/10 09:31:51;;;;;;;8.33;7.63;;;13.10;12.30;;;;;;5396934;26;20475;-80
2024/04/10 09:34:21;;;;;;;8.00;7.23;;;13.30;11.00;;;;;;5396781;26;21058;-79
2024/04/10 09:36:47;;;;;;;7.67;6.93;;;13.60;11.20;;;;;;5401643;26;20596;-79
2024/04/10 09:39:13;;;;;;;7.53;6.87;;;13.60;11.00;;;;;;5399713;26;20479;-78
2024/04/10 09:41:44;;;;;;;8.87;7.03;;;13.70;10.40;;;;;;5398474;26;20475;-79
2024/04/10 09:44:10;;;;;;;7.33;6.63;;;13.90;10.60;;;;;;5399670;26;20533;-79
2024/04/10 09:46:37;;;;;;;7.53;6.93;;;13.90;10.40;;;;;;5400059;26;20580;-79
2024/04/10 09:49:10;;;;;;;7.67;6.97;;;14.00;10.00;;;;;;5383180;26;20568;-78
2024/04/10 09:51:41;;;;;;;8.17;7.43;;;14.20;9.10;;;;;;5386177;26;20460;-77
2024/04/10 09:54:07;;;;;;;7.83;7.03;;;14.30;8.50;;;;;;5387708;26;20468;-80
2024/04/10 09:56:41;;;;;;;7.67;7.00;;;14.20;8.10;;;;;;5382489;26;21225;-80
2024/04/10 09:59:10;;;;;;;13.87;7.80;;;14.20;7.90;;;;;;5388645;26;20952;-77
2024/04/10 10:01:39;;;;;;;8.03;7.30;;;14.30;7.20;;;;;;5378040;26;20457;-78
2024/04/10 10:04:05;;;;;;;6.90;6.40;;;14.40;7.40;;;;;;5385219;26;20503;-79
2024/04/10 10:06:31;;;;;;;7.37;6.80;;;14.10;8.00;;;;;;5385700;26;20483;-79
2024/04/10 10:08:58;;;;;;;8.20;6.40;;;14.10;8.00;;;;;;5388056;26;20241;-81
2024/04/10 10:11:24;;;;;;;8.27;7.47;;;14.40;7.80;;;;;;5386262;26;20476;-80
2024/04/10 10:14:04;;;;;;;7.43;6.93;;;14.50;7.30;;;;;;5388548;26;20506;-79
2024/04/10 10:16:33;;;;;;;7.33;6.90;;;14.60;7.00;;;;;;5381063;26;20460;-76
2024/04/10 10:19:00;;;;;;;5.93;5.50;;;14.60;6.10;;;;;;5380961;26;20457;-79
2024/04/10 10:21:28;;;;;;;6.53;6.13;;;14.40;6.20;;;;;;5379390;26;20833;-77
2024/04/10 10:24:05;;;;;;;7.90;7.17;;;14.20;6.50;;;;;;5378173;26;20519;-76
2024/04/10 10:26:31;;;;;;;6.90;6.37;;;14.00;6.90;;;;;;5376872;26;20585;-75
2024/04/10 10:29:04;;;;;;;7.33;6.83;;;13.90;6.20;;;;;;5379041;26;20615;-78
2024/04/10 10:31:30;;;;;;;6.63;6.23;;;13.80;5.70;;;;;;5381835;26;20242;-78
2024/04/10 10:34:00;;;;;;;6.70;6.20;;;13.80;5.30;;;;;;5379243;26;20997;-77
2024/04/10 10:36:32;;;;;;;6.30;5.93;;;13.90;4.10;;;;;;5381495;26;20234;-79
2024/04/10 10:39:05;;;;;;;6.90;6.40;;;14.10;3.90;;;;;;5381794;26;20570;-77
2024/04/10 10:41:30;;;;;;;6.80;6.37;;;14.10;4.30;;;;;;5379942;26;20472;-79
2024/04/10 10:43:59;;;;;;;7.50;7.00;;;14.10;4.70;;;;;;5381885;26;20555;-78
2024/04/10 10:46:27;;;;;;;6.13;5.83;;;14.30;5.30;;;;;;5380436;26;20278;-79
2024/04/10 10:48:53;;;;;;;6.60;6.10;;;14.60;4.60;;;;;;5381345;26;20472;-79
2024/04/10 10:51:23;;;;;;;7.60;6.67;;;14.70;4.40;;;;;;5371769;26;20457;-80
2024/04/10 10:53:49;;;;;;;8.80;6.60;;;14.90;4.40;;;;;;5376452;26;20481;-79
2024/04/10 10:56:25;;;;;;;7.27;6.77;;;14.80;4.70;;;;;;5380732;26;20482;-79
2024/04/10 10:58:53;;;;;;;6.43;5.93;;;14.80;4.40;;;;;;5380608;26;21315;-79
2024/04/10 11:01:20;;;;;;;7.13;6.63;;;14.70;5.10;;;;;;5381098;26;20477;-78
2024/04/10 11:03:47;;;;;;;6.37;5.97;;;14.80;4.70;;;;;;5386169;26;20460;-78
2024/04/10 11:06:14;;;;;;;6.80;6.10;;;14.80;4.30;;;;;;5381554;26;20468;-77
2024/04/10 11:08:40;;;;;;;7.20;6.80;;;14.90;4.30;;;;;;5380950;26;20480;-78
2024/04/10 11:11:06;;;;;;;6.67;6.17;;;15.00;3.80;;;;;;5380868;26;20590;-79
2024/04/10 11:13:32;;;;;;;6.40;5.87;;;15.00;3.40;;;;;;5387224;26;20281;-79
2024/04/10 11:15:58;;;;;;;6.50;6.00;;;14.70;3.90;;;;;;5387945;26;20226;-77
2024/04/10 11:18:24;;;;;;;6.30;6.00;;;14.50;3.50;;;;;;5379859;26;20472;-78
2024/04/10 11:20:51;;;;;;;6.20;5.70;;;14.60;3.30;;;;;;5384271;26;20242;-77
2024/04/10 11:23:17;;;;;;;6.30;5.90;;;14.70;3.30;;;;;;5387176;26;20540;-78
2024/04/10 11:25:43;;;;;;;7.07;6.77;;;14.80;3.50;;;;;;5383197;26;20464;-76
2024/04/10 11:28:09;;;;;;;6.93;6.30;;;14.90;4.70;;;;;;5374934;26;20470;-77
2024/04/10 11:30:36;;;;;;;7.70;7.10;;;14.90;4.10;;;;;;5369973;26;21080;-77
2024/04/10 11:33:04;;;;;;;6.30;5.90;;;15.00;3.60;;;;;;5384154;26;20468;-79
2024/04/10 11:35:31;;;;;;;7.50;6.90;;;15.00;4.00;;;;;;5386065;26;20554;-78
2024/04/10 11:37:56;;;;;;;6.60;6.10;;;14.90;4.20;;;;;;5387911;26;20468;-78
2024/04/10 11:40:24;;;;;;;7.40;6.80;;;15.00;4.70;;;;;;5449492;21;20491;-83
2024/04/10 11:42:55;;;;;;;6.53;6.20;;;15.10;5.00;;;;;;5402222;26;20343;-83
2024/04/10 11:45:39;;;;;;;6.53;6.13;;;15.20;2.60;;;;;;5405713;26;20561;-83
2024/04/10 11:48:34;;;;;;;6.57;6.10;;;15.20;2.20;;;;;;5395166;26;20483;-83
2024/04/10 11:51:00;;;;;;;7.57;6.97;;;15.20;3.60;;;;;;5383668;26;20517;-82
2024/04/10 11:53:26;;;;;;;7.83;7.10;;;15.20;3.50;;;;;;5362721;26;20477;-84
2024/04/10 11:56:49;;;;;;;7.63;6.90;;;15.10;3.20;;;;;;5422072;26;20536;-84
2024/04/10 11:59:45;;;;;;;7.23;6.47;;;15.10;3.30;;;;;;5396482;26;20464;-85
2024/04/10 12:02:26;;;;;;;8.23;6.60;;;15.00;3.90;;;;;;5386414;26;20544;-82
2024/04/10 12:04:56;;;;;;;7.47;6.97;;;14.90;3.20;;;;;;5322942;26;20469;-82
2024/04/10 12:07:31;;;;;;;7.40;6.90;;;14.90;2.30;;;;;;5345814;26;21059;-84
2024/04/10 12:17:53;;;;;;;6.20;5.90;;;15.20;1.00;;;;;;5341726;26;20528;-84
2024/04/10 12:20:58;;;;;;;7.13;6.50;;;15.20;1.00;;;;;;5371127;26;20473;-86
2024/04/10 12:23:46;;;;;;;6.97;6.57;;;15.20;1.00;;;;;;5383027;26;20524;-81
2024/04/10 12:26:15;;;;;;;6.90;6.50;;;15.20;1.00;;;;;;5411230;26;20542;-82
2024/04/10 12:28:41;;;;;;;6.40;6.00;;;15.20;1.10;;;;;;5341724;26;20482;-83
2024/04/10 12:31:15;;;;;;;6.87;6.20;;;15.20;1.40;;;;;;5401929;26;21030;-83
2024/04/10 12:34:19;;;;;;;7.00;6.40;;;15.20;2.10;;;;;;5384017;26;20440;-82
2024/04/10 12:40:21;;;;;;;7.30;6.60;;;15.00;2.40;;;;;;5309945;26;20518;-85
2024/04/10 12:43:46;;;;;;;7.00;6.47;;;14.90;2.70;;;;;;5285170;27;20532;-85
2024/04/10 12:47:14;;;;;;;6.87;6.27;;;14.90;2.70;;;;;;5158109;27;20484;-84
2024/04/10 12:54:21;;;;;;;6.60;6.20;;;14.90;3.10;;;;;;5198428;27;20877;-85
2024/04/10 13:08:22;;;;;;;6.77;6.47;;;15.10;1.00;;;;;;5195523;27;20555;-85
2024/04/10 13:12:04;;;;;;;6.40;6.10;;;15.10;1.00;;;;;;5184054;27;20564;-84
2024/04/10 13:24:56;;;;;;;6.30;5.53;;;15.20;1.00;;;;;;5256083;26;20528;-85
2024/04/10 13:27:22;;;;;;;6.93;6.50;;;15.30;1.00;;;;;;5401384;26;20475;-85
2024/04/10 13:30:15;;;;;;;6.03;5.60;;;15.30;1.00;;;;;;5396542;26;20514;-84
2024/04/10 13:51:07;;;;;;;7.60;6.83;;;15.40;1.80;;;;;;5357558;26;20573;-85
2024/04/10 13:53:44;;;;;;;7.30;6.80;;;15.50;2.90;;;;;;5346881;26;20936;-85
2024/04/10 13:56:10;;;;;;;6.20;5.70;;;15.50;3.40;;;;;;5309562;26;20835;-80